sensor_id;sensor_type;location;lat;lon;timestamp;temperature;humidity
74294;DHT22;64044;59.904;10.738;2023-02-14T00:01:05;2.50;65.50
74294;DHT22;64044;59.904;10.738;2023-02-14T00:03:31;2.50;65.30
74294;DHT22;64044;59.904;10.738;2023-02-14T00:05:56;2.50;65.70
74294;DHT22;64044;59.904;10.738;2023-02-14T00:08:22;2.50;65.10
74294;DHT22;64044;59.904;10.738;2023-02-14T00:10:48;2.50;64.80
74294;DHT22;64044;59.904;10.738;2023-02-14T00:13:13;2.50;64.50
74294;DHT22;64044;59.904;10.738;2023-02-14T00:15:39;2.50;64.20
74294;DHT22;64044;59.904;10.738;2023-02-14T00:18:05;2.40;64.10
74294;DHT22;64044;59.904;10.738;2023-02-14T00:20:30;2.40;64.20
74294;DHT22;64044;59.904;10.738;2023-02-14T00:22:56;2.40;64.80
74294;DHT22;64044;59.904;10.738;2023-02-14T00:25:22;2.30;64.00
74294;DHT22;64044;59.904;10.738;2023-02-14T00:27:48;2.30;64.10
74294;DHT22;64044;59.904;10.738;2023-02-14T00:30:13;2.20;64.20
74294;DHT22;64044;59.904;10.738;2023-02-14T00:32:40;2.20;64.50
74294;DHT22;64044;59.904;10.738;2023-02-14T00:35:07;2.20;64.50
74294;DHT22;64044;59.904;10.738;2023-02-14T00:37:33;2.10;64.40
74294;DHT22;64044;59.904;10.738;2023-02-14T00:39:59;2.10;64.50
74294;DHT22;64044;59.904;10.738;2023-02-14T00:42:25;2.10;64.60
74294;DHT22;64044;59.904;10.738;2023-02-14T00:44:50;2.00;64.70
74294;DHT22;64044;59.904;10.738;2023-02-14T00:47:16;2.00;64.90
74294;DHT22;64044;59.904;10.738;2023-02-14T00:49:42;1.90;65.10
74294;DHT22;64044;59.904;10.738;2023-02-14T00:52:07;1.90;65.20
74294;DHT22;64044;59.904;10.738;2023-02-14T00:54:33;1.90;65.40
74294;DHT22;64044;59.904;10.738;2023-02-14T00:56:59;1.90;65.50
74294;DHT22;64044;59.904;10.738;2023-02-14T00:59:24;1.90;65.60
74294;DHT22;64044;59.904;10.738;2023-02-14T01:01:50;1.90;65.50
74294;DHT22;64044;59.904;10.738;2023-02-14T01:04:16;1.80;65.40
74294;DHT22;64044;59.904;10.738;2023-02-14T01:06:42;1.80;64.90
74294;DHT22;64044;59.904;10.738;2023-02-14T01:09:07;1.80;64.70
74294;DHT22;64044;59.904;10.738;2023-02-14T01:11:33;1.80;65.10
74294;DHT22;64044;59.904;10.738;2023-02-14T01:13:59;1.80;65.30
74294;DHT22;64044;59.904;10.738;2023-02-14T01:16:26;1.70;65.40
74294;DHT22;64044;59.904;10.738;2023-02-14T01:18:52;1.70;65.50
74294;DHT22;64044;59.904;10.738;2023-02-14T01:23:53;1.60;65.60
74294;DHT22;64044;59.904;10.738;2023-02-14T01:26:22;1.60;65.30
74294;DHT22;64044;59.904;10.738;2023-02-14T01:28:48;1.60;65.30
74294;DHT22;64044;59.904;10.738;2023-02-14T01:31:33;1.60;65.60
74294;DHT22;64044;59.904;10.738;2023-02-14T01:33:59;1.50;66.80
74294;DHT22;64044;59.904;10.738;2023-02-14T01:36:28;1.50;66.10
74294;DHT22;64044;59.904;10.738;2023-02-14T01:38:59;1.50;66.50
74294;DHT22;64044;59.904;10.738;2023-02-14T01:41:28;1.50;66.60
74294;DHT22;64044;59.904;10.738;2023-02-14T01:46:23;1.50;66.40
74294;DHT22;64044;59.904;10.738;2023-02-14T01:48:50;1.50;66.50
74294;DHT22;64044;59.904;10.738;2023-02-14T01:51:19;1.50;66.50
74294;DHT22;64044;59.904;10.738;2023-02-14T01:53:45;1.40;66.50
74294;DHT22;64044;59.904;10.738;2023-02-14T01:56:14;1.40;66.70
74294;DHT22;64044;59.904;10.738;2023-02-14T01:58:43;1.40;67.20
74294;DHT22;64044;59.904;10.738;2023-02-14T02:01:15;1.40;66.90
74294;DHT22;64044;59.904;10.738;2023-02-14T02:03:53;1.40;67.20
74294;DHT22;64044;59.904;10.738;2023-02-14T02:06:39;1.40;67.60
74294;DHT22;64044;59.904;10.738;2023-02-14T02:11:51;1.40;67.70
74294;DHT22;64044;59.904;10.738;2023-02-14T02:14:19;1.40;66.70
74294;DHT22;64044;59.904;10.738;2023-02-14T02:31:14;1.20;66.60
74294;DHT22;64044;59.904;10.738;2023-02-14T02:36:53;1.20;66.90
74294;DHT22;64044;59.904;10.738;2023-02-14T02:48:05;1.20;68.30
74294;DHT22;64044;59.904;10.738;2023-02-14T02:50:47;1.20;67.60
74294;DHT22;64044;59.904;10.738;2023-02-14T02:53:53;1.20;67.40
74294;DHT22;64044;59.904;10.738;2023-02-14T02:56:43;1.10;68.30
74294;DHT22;64044;59.904;10.738;2023-02-14T02:59:19;1.10;67.90
74294;DHT22;64044;59.904;10.738;2023-02-14T03:04:19;1.00;67.60
74294;DHT22;64044;59.904;10.738;2023-02-14T03:07:05;1.00;67.30
74294;DHT22;64044;59.904;10.738;2023-02-14T03:09:58;1.00;67.30
74294;DHT22;64044;59.904;10.738;2023-02-14T03:21:25;0.90;68.30
74294;DHT22;64044;59.904;10.738;2023-02-14T03:24:18;0.90;67.90
74294;DHT22;64044;59.904;10.738;2023-02-14T03:27:11;0.90;68.30
74294;DHT22;64044;59.904;10.738;2023-02-14T03:37:48;0.80;67.60
74294;DHT22;64044;59.904;10.738;2023-02-14T03:40:24;0.80;68.00
74294;DHT22;64044;59.904;10.738;2023-02-14T03:43:10;0.70;67.80
74294;DHT22;64044;59.904;10.738;2023-02-14T03:45:45;0.70;68.50
74294;DHT22;64044;59.904;10.738;2023-02-14T03:48:13;0.70;68.10
74294;DHT22;64044;59.904;10.738;2023-02-14T03:50:41;0.70;68.00
74294;DHT22;64044;59.904;10.738;2023-02-14T03:53:09;0.70;68.10
74294;DHT22;64044;59.904;10.738;2023-02-14T03:55:40;0.70;68.20
74294;DHT22;64044;59.904;10.738;2023-02-14T04:00:39;0.70;68.40
74294;DHT22;64044;59.904;10.738;2023-02-14T04:03:09;0.70;68.30
74294;DHT22;64044;59.904;10.738;2023-02-14T04:05:37;0.70;68.30
74294;DHT22;64044;59.904;10.738;2023-02-14T04:08:06;0.70;68.50
74294;DHT22;64044;59.904;10.738;2023-02-14T04:10:32;0.70;68.50
74294;DHT22;64044;59.904;10.738;2023-02-14T04:12:58;0.70;68.60
74294;DHT22;64044;59.904;10.738;2023-02-14T04:15:24;0.70;68.70
74294;DHT22;64044;59.904;10.738;2023-02-14T04:17:50;0.70;68.70
74294;DHT22;64044;59.904;10.738;2023-02-14T04:20:34;0.70;68.50
74294;DHT22;64044;59.904;10.738;2023-02-14T04:23:01;0.70;68.40
74294;DHT22;64044;59.904;10.738;2023-02-14T04:25:27;0.70;68.40
74294;DHT22;64044;59.904;10.738;2023-02-14T04:27:53;0.70;68.60
74294;DHT22;64044;59.904;10.738;2023-02-14T04:30:19;0.70;68.70
74294;DHT22;64044;59.904;10.738;2023-02-14T04:32:48;0.70;68.70
74294;DHT22;64044;59.904;10.738;2023-02-14T04:35:15;0.70;68.80
74294;DHT22;64044;59.904;10.738;2023-02-14T04:37:40;0.70;68.70
74294;DHT22;64044;59.904;10.738;2023-02-14T04:40:07;0.70;68.80
74294;DHT22;64044;59.904;10.738;2023-02-14T04:42:33;0.70;68.90
74294;DHT22;64044;59.904;10.738;2023-02-14T04:44:59;0.60;68.90
74294;DHT22;64044;59.904;10.738;2023-02-14T04:47:24;0.60;69.50
74294;DHT22;64044;59.904;10.738;2023-02-14T04:49:50;0.60;69.40
74294;DHT22;64044;59.904;10.738;2023-02-14T04:52:16;0.60;69.30
74294;DHT22;64044;59.904;10.738;2023-02-14T04:54:42;0.60;69.50
74294;DHT22;64044;59.904;10.738;2023-02-14T04:57:08;0.60;69.60
74294;DHT22;64044;59.904;10.738;2023-02-14T04:59:33;0.60;69.60
74294;DHT22;64044;59.904;10.738;2023-02-14T05:01:59;0.60;69.60
74294;DHT22;64044;59.904;10.738;2023-02-14T05:04:25;0.70;69.70
74294;DHT22;64044;59.904;10.738;2023-02-14T05:06:51;0.70;69.60
74294;DHT22;64044;59.904;10.738;2023-02-14T05:09:17;0.70;69.70
74294;DHT22;64044;59.904;10.738;2023-02-14T05:11:42;0.70;69.80
74294;DHT22;64044;59.904;10.738;2023-02-14T05:14:08;0.70;69.60
74294;DHT22;64044;59.904;10.738;2023-02-14T05:16:34;0.70;69.80
74294;DHT22;64044;59.904;10.738;2023-02-14T05:19:00;0.70;69.60
74294;DHT22;64044;59.904;10.738;2023-02-14T05:21:25;0.70;68.50
74294;DHT22;64044;59.904;10.738;2023-02-14T05:23:52;0.80;68.40
74294;DHT22;64044;59.904;10.738;2023-02-14T05:26:18;0.70;68.10
74294;DHT22;64044;59.904;10.738;2023-02-14T05:28:44;0.80;68.10
74294;DHT22;64044;59.904;10.738;2023-02-14T05:31:09;0.70;68.10
74294;DHT22;64044;59.904;10.738;2023-02-14T05:33:35;0.80;68.10
74294;DHT22;64044;59.904;10.738;2023-02-14T05:36:01;0.70;68.30
74294;DHT22;64044;59.904;10.738;2023-02-14T05:38:27;0.70;68.40
74294;DHT22;64044;59.904;10.738;2023-02-14T05:40:53;0.70;68.40
74294;DHT22;64044;59.904;10.738;2023-02-14T05:43:20;0.70;68.60
74294;DHT22;64044;59.904;10.738;2023-02-14T05:45:47;0.70;68.60
74294;DHT22;64044;59.904;10.738;2023-02-14T05:48:12;0.70;68.50
74294;DHT22;64044;59.904;10.738;2023-02-14T05:50:38;0.70;68.50
74294;DHT22;64044;59.904;10.738;2023-02-14T05:53:04;0.70;68.70
74294;DHT22;64044;59.904;10.738;2023-02-14T05:55:30;0.60;68.90
74294;DHT22;64044;59.904;10.738;2023-02-14T05:57:55;0.70;69.60
74294;DHT22;64044;59.904;10.738;2023-02-14T06:00:22;0.60;68.90
74294;DHT22;64044;59.904;10.738;2023-02-14T06:02:48;0.60;68.70
74294;DHT22;64044;59.904;10.738;2023-02-14T06:05:14;0.60;68.90
74294;DHT22;64044;59.904;10.738;2023-02-14T06:07:42;0.60;69.00
74294;DHT22;64044;59.904;10.738;2023-02-14T06:10:13;0.60;69.00
74294;DHT22;64044;59.904;10.738;2023-02-14T06:12:39;0.50;69.00
74294;DHT22;64044;59.904;10.738;2023-02-14T06:15:05;0.50;69.20
74294;DHT22;64044;59.904;10.738;2023-02-14T06:17:30;0.50;69.30
74294;DHT22;64044;59.904;10.738;2023-02-14T06:19:56;0.50;69.50
74294;DHT22;64044;59.904;10.738;2023-02-14T06:22:22;0.50;69.70
74294;DHT22;64044;59.904;10.738;2023-02-14T06:24:47;0.40;70.00
74294;DHT22;64044;59.904;10.738;2023-02-14T06:27:22;0.40;70.00
74294;DHT22;64044;59.904;10.738;2023-02-14T06:29:47;0.40;70.30
74294;DHT22;64044;59.904;10.738;2023-02-14T06:32:13;0.40;72.20
74294;DHT22;64044;59.904;10.738;2023-02-14T06:34:39;0.40;69.70
74294;DHT22;64044;59.904;10.738;2023-02-14T06:37:06;0.40;69.60
74294;DHT22;64044;59.904;10.738;2023-02-14T06:39:32;0.40;69.70
74294;DHT22;64044;59.904;10.738;2023-02-14T06:41:57;0.40;69.80
74294;DHT22;64044;59.904;10.738;2023-02-14T06:44:23;0.40;70.00
74294;DHT22;64044;59.904;10.738;2023-02-14T06:46:49;0.40;70.20
74294;DHT22;64044;59.904;10.738;2023-02-14T06:49:14;0.40;70.40
74294;DHT22;64044;59.904;10.738;2023-02-14T06:51:40;0.30;70.20
74294;DHT22;64044;59.904;10.738;2023-02-14T06:54:06;0.40;70.40
74294;DHT22;64044;59.904;10.738;2023-02-14T06:56:32;0.40;70.80
74294;DHT22;64044;59.904;10.738;2023-02-14T06:58:57;0.40;70.60
74294;DHT22;64044;59.904;10.738;2023-02-14T07:01:23;0.40;70.80
74294;DHT22;64044;59.904;10.738;2023-02-14T07:03:49;0.40;70.90
74294;DHT22;64044;59.904;10.738;2023-02-14T07:06:14;0.40;70.80
74294;DHT22;64044;59.904;10.738;2023-02-14T07:08:40;0.40;70.70
74294;DHT22;64044;59.904;10.738;2023-02-14T07:11:07;0.40;70.60
74294;DHT22;64044;59.904;10.738;2023-02-14T07:13:32;0.40;70.50
74294;DHT22;64044;59.904;10.738;2023-02-14T07:15:58;0.40;70.50
74294;DHT22;64044;59.904;10.738;2023-02-14T07:18:24;0.40;70.50
74294;DHT22;64044;59.904;10.738;2023-02-14T07:20:50;0.40;70.50
74294;DHT22;64044;59.904;10.738;2023-02-14T07:23:16;0.40;70.50
74294;DHT22;64044;59.904;10.738;2023-02-14T07:25:41;0.40;70.50
74294;DHT22;64044;59.904;10.738;2023-02-14T07:28:07;0.40;70.50
74294;DHT22;64044;59.904;10.738;2023-02-14T07:30:33;0.40;70.40
74294;DHT22;64044;59.904;10.738;2023-02-14T07:32:59;0.50;70.50
74294;DHT22;64044;59.904;10.738;2023-02-14T07:35:25;0.50;70.30
74294;DHT22;64044;59.904;10.738;2023-02-14T07:37:50;0.50;71.30
74294;DHT22;64044;59.904;10.738;2023-02-14T07:40:17;0.50;71.80
74294;DHT22;64044;59.904;10.738;2023-02-14T07:42:43;0.60;71.90
74294;DHT22;64044;59.904;10.738;2023-02-14T07:45:09;0.60;71.70
74294;DHT22;64044;59.904;10.738;2023-02-14T07:47:35;0.70;71.60
74294;DHT22;64044;59.904;10.738;2023-02-14T07:50:00;0.70;71.40
74294;DHT22;64044;59.904;10.738;2023-02-14T07:52:26;0.70;71.20
74294;DHT22;64044;59.904;10.738;2023-02-14T07:54:52;0.80;71.10
74294;DHT22;64044;59.904;10.738;2023-02-14T07:57:18;0.80;70.80
74294;DHT22;64044;59.904;10.738;2023-02-14T07:59:43;0.80;70.60
74294;DHT22;64044;59.904;10.738;2023-02-14T08:02:11;0.90;70.50
74294;DHT22;64044;59.904;10.738;2023-02-14T08:04:37;0.90;70.50
74294;DHT22;64044;59.904;10.738;2023-02-14T08:07:02;1.00;70.60
74294;DHT22;64044;59.904;10.738;2023-02-14T08:09:28;1.00;70.60
74294;DHT22;64044;59.904;10.738;2023-02-14T08:11:56;1.00;70.60
74294;DHT22;64044;59.904;10.738;2023-02-14T08:14:41;1.00;70.50
74294;DHT22;64044;59.904;10.738;2023-02-14T08:17:07;1.10;70.30
74294;DHT22;64044;59.904;10.738;2023-02-14T08:19:35;1.10;70.40
74294;DHT22;64044;59.904;10.738;2023-02-14T08:22:02;1.10;70.50
74294;DHT22;64044;59.904;10.738;2023-02-14T08:24:28;1.10;70.40
74294;DHT22;64044;59.904;10.738;2023-02-14T08:26:54;1.20;70.40
74294;DHT22;64044;59.904;10.738;2023-02-14T08:29:20;1.20;70.30
74294;DHT22;64044;59.904;10.738;2023-02-14T08:31:45;1.20;70.20
74294;DHT22;64044;59.904;10.738;2023-02-14T08:34:12;1.20;70.40
74294;DHT22;64044;59.904;10.738;2023-02-14T08:36:38;1.30;70.50
74294;DHT22;64044;59.904;10.738;2023-02-14T08:39:05;1.30;70.40
74294;DHT22;64044;59.904;10.738;2023-02-14T08:41:31;1.30;70.50
74294;DHT22;64044;59.904;10.738;2023-02-14T08:43:57;1.30;70.40
74294;DHT22;64044;59.904;10.738;2023-02-14T08:46:48;1.40;70.20
74294;DHT22;64044;59.904;10.738;2023-02-14T08:49:14;1.40;70.20
74294;DHT22;64044;59.904;10.738;2023-02-14T08:51:40;1.40;70.10
74294;DHT22;64044;59.904;10.738;2023-02-14T08:54:06;1.40;70.30
74294;DHT22;64044;59.904;10.738;2023-02-14T08:56:31;1.50;70.20
74294;DHT22;64044;59.904;10.738;2023-02-14T08:58:57;1.50;70.30
74294;DHT22;64044;59.904;10.738;2023-02-14T09:01:23;1.50;70.20
74294;DHT22;64044;59.904;10.738;2023-02-14T09:03:49;1.50;70.20
74294;DHT22;64044;59.904;10.738;2023-02-14T09:06:15;1.50;70.30
74294;DHT22;64044;59.904;10.738;2023-02-14T09:08:42;1.50;70.30
74294;DHT22;64044;59.904;10.738;2023-02-14T09:11:10;1.60;70.40
74294;DHT22;64044;59.904;10.738;2023-02-14T09:13:36;1.60;70.30
74294;DHT22;64044;59.904;10.738;2023-02-14T09:16:06;1.60;70.30
74294;DHT22;64044;59.904;10.738;2023-02-14T09:18:32;1.60;70.50
74294;DHT22;64044;59.904;10.738;2023-02-14T09:20:58;1.60;70.40
74294;DHT22;64044;59.904;10.738;2023-02-14T09:23:24;1.70;70.60
74294;DHT22;64044;59.904;10.738;2023-02-14T09:25:50;1.70;70.60
74294;DHT22;64044;59.904;10.738;2023-02-14T09:28:16;1.70;70.40
74294;DHT22;64044;59.904;10.738;2023-02-14T09:30:41;1.80;70.40
74294;DHT22;64044;59.904;10.738;2023-02-14T09:33:07;1.80;70.20
74294;DHT22;64044;59.904;10.738;2023-02-14T09:35:33;1.80;70.00
74294;DHT22;64044;59.904;10.738;2023-02-14T09:37:58;1.90;70.20
74294;DHT22;64044;59.904;10.738;2023-02-14T09:40:24;1.90;70.10
74294;DHT22;64044;59.904;10.738;2023-02-14T09:43:35;1.90;70.00
74294;DHT22;64044;59.904;10.738;2023-02-14T09:45:39;2.00;70.00
74294;DHT22;64044;59.904;10.738;2023-02-14T09:48:22;2.00;69.70
74294;DHT22;64044;59.904;10.738;2023-02-14T09:50:55;2.00;70.10
74294;DHT22;64044;59.904;10.738;2023-02-14T09:53:32;2.10;70.00
74294;DHT22;64044;59.904;10.738;2023-02-14T10:01:48;2.20;70.30
74294;DHT22;64044;59.904;10.738;2023-02-14T10:12:44;2.60;71.00
74294;DHT22;64044;59.904;10.738;2023-02-14T10:20:57;2.80;70.40
74294;DHT22;64044;59.904;10.738;2023-02-14T10:23:40;2.90;70.40
74294;DHT22;64044;59.904;10.738;2023-02-14T10:26:25;3.00;69.90
74294;DHT22;64044;59.904;10.738;2023-02-14T10:28:54;3.00;70.80
74294;DHT22;64044;59.904;10.738;2023-02-14T10:31:34;3.10;69.80
74294;DHT22;64044;59.904;10.738;2023-02-14T10:39:46;3.20;69.30
74294;DHT22;64044;59.904;10.738;2023-02-14T10:56:38;3.30;69.10
74294;DHT22;64044;59.904;10.738;2023-02-14T10:59:31;3.30;70.00
74294;DHT22;64044;59.904;10.738;2023-02-14T11:01:58;3.40;69.90
74294;DHT22;64044;59.904;10.738;2023-02-14T11:04:25;3.40;69.40
74294;DHT22;64044;59.904;10.738;2023-02-14T11:06:51;3.50;69.40
74294;DHT22;64044;59.904;10.738;2023-02-14T11:09:18;3.50;69.20
74294;DHT22;64044;59.904;10.738;2023-02-14T11:11:50;3.50;69.10
74294;DHT22;64044;59.904;10.738;2023-02-14T11:14:34;3.50;69.10
74294;DHT22;64044;59.904;10.738;2023-02-14T11:19:56;3.50;69.10
74294;DHT22;64044;59.904;10.738;2023-02-14T11:22:33;3.50;68.60
74294;DHT22;64044;59.904;10.738;2023-02-14T11:25:05;3.50;68.50
74294;DHT22;64044;59.904;10.738;2023-02-14T11:27:31;3.50;68.60
74294;DHT22;64044;59.904;10.738;2023-02-14T11:29:58;3.50;68.50
74294;DHT22;64044;59.904;10.738;2023-02-14T11:32:29;3.50;69.40
74294;DHT22;64044;59.904;10.738;2023-02-14T11:35:04;3.50;68.80
74294;DHT22;64044;59.904;10.738;2023-02-14T11:37:37;3.50;69.10
74294;DHT22;64044;59.904;10.738;2023-02-14T11:40:05;3.50;69.10
74294;DHT22;64044;59.904;10.738;2023-02-14T11:42:44;3.50;68.90
74294;DHT22;64044;59.904;10.738;2023-02-14T11:45:36;3.50;69.10
74294;DHT22;64044;59.904;10.738;2023-02-14T11:51:11;3.50;68.60
74294;DHT22;64044;59.904;10.738;2023-02-14T11:53:44;3.50;68.60
74294;DHT22;64044;59.904;10.738;2023-02-14T11:56:12;3.50;68.80
74294;DHT22;64044;59.904;10.738;2023-02-14T11:58:59;3.50;69.00
74294;DHT22;64044;59.904;10.738;2023-02-14T12:01:35;3.50;69.50
74294;DHT22;64044;59.904;10.738;2023-02-14T12:04:37;3.50;69.20
74294;DHT22;64044;59.904;10.738;2023-02-14T12:09:46;3.60;69.20
74294;DHT22;64044;59.904;10.738;2023-02-14T12:12:22;3.60;68.80
74294;DHT22;64044;59.904;10.738;2023-02-14T12:14:49;3.60;68.80
74294;DHT22;64044;59.904;10.738;2023-02-14T12:17:44;3.60;68.50
74294;DHT22;64044;59.904;10.738;2023-02-14T12:20:14;3.60;69.00
74294;DHT22;64044;59.904;10.738;2023-02-14T12:23:01;3.60;68.50
74294;DHT22;64044;59.904;10.738;2023-02-14T12:25:49;3.60;68.80
74294;DHT22;64044;59.904;10.738;2023-02-14T12:28:18;3.60;68.70
74294;DHT22;64044;59.904;10.738;2023-02-14T12:30:45;3.60;68.40
74294;DHT22;64044;59.904;10.738;2023-02-14T12:33:19;3.60;68.30
74294;DHT22;64044;59.904;10.738;2023-02-14T12:42:02;3.70;68.60
74294;DHT22;64044;59.904;10.738;2023-02-14T13:10:31;3.70;69.00
74294;DHT22;64044;59.904;10.738;2023-02-14T13:18:51;3.70;69.40
74294;DHT22;64044;59.904;10.738;2023-02-14T13:21:24;3.70;69.50
74294;DHT22;64044;59.904;10.738;2023-02-14T13:23:56;3.70;69.40
74294;DHT22;64044;59.904;10.738;2023-02-14T13:26:30;3.70;69.40
74294;DHT22;64044;59.904;10.738;2023-02-14T13:29:05;3.70;69.60
74294;DHT22;64044;59.904;10.738;2023-02-14T13:31:32;3.70;69.50
74294;DHT22;64044;59.904;10.738;2023-02-14T13:34:05;3.80;69.30
74294;DHT22;64044;59.904;10.738;2023-02-14T13:36:32;3.80;69.50
74294;DHT22;64044;59.904;10.738;2023-02-14T13:38:58;3.80;69.30
74294;DHT22;64044;59.904;10.738;2023-02-14T13:41:25;3.90;69.80
74294;DHT22;64044;59.904;10.738;2023-02-14T13:43:59;3.90;69.40
74294;DHT22;64044;59.904;10.738;2023-02-14T13:48:59;3.90;69.50
74294;DHT22;64044;59.904;10.738;2023-02-14T13:51:45;3.90;69.40
74294;DHT22;64044;59.904;10.738;2023-02-14T13:57:37;4.00;70.20
74294;DHT22;64044;59.904;10.738;2023-02-14T14:05:44;4.00;69.80
74294;DHT22;64044;59.904;10.738;2023-02-14T14:10:56;4.00;69.90
74294;DHT22;64044;59.904;10.738;2023-02-14T14:21:35;3.90;70.50
74294;DHT22;64044;59.904;10.738;2023-02-14T14:26:35;3.90;70.00
74294;DHT22;64044;59.904;10.738;2023-02-14T14:29:02;3.80;70.20
74294;DHT22;64044;59.904;10.738;2023-02-14T14:31:34;3.80;70.10
74294;DHT22;64044;59.904;10.738;2023-02-14T14:34:01;3.80;70.30
74294;DHT22;64044;59.904;10.738;2023-02-14T14:36:27;3.80;70.30
74294;DHT22;64044;59.904;10.738;2023-02-14T14:38:53;3.80;70.40
74294;DHT22;64044;59.904;10.738;2023-02-14T14:41:25;3.80;70.40
74294;DHT22;64044;59.904;10.738;2023-02-14T14:43:52;3.80;70.50
74294;DHT22;64044;59.904;10.738;2023-02-14T14:46:18;3.90;70.80
74294;DHT22;64044;59.904;10.738;2023-02-14T14:48:49;3.90;70.70
74294;DHT22;64044;59.904;10.738;2023-02-14T14:51:22;3.90;70.80
74294;DHT22;64044;59.904;10.738;2023-02-14T14:54:00;3.90;70.60
74294;DHT22;64044;59.904;10.738;2023-02-14T14:59:34;4.00;71.00
74294;DHT22;64044;59.904;10.738;2023-02-14T15:02:01;4.00;70.90
74294;DHT22;64044;59.904;10.738;2023-02-14T15:04:29;4.10;70.60
74294;DHT22;64044;59.904;10.738;2023-02-14T15:06:56;4.10;70.70
74294;DHT22;64044;59.904;10.738;2023-02-14T15:09:30;4.10;70.70
74294;DHT22;64044;59.904;10.738;2023-02-14T15:11:57;4.20;70.80
74294;DHT22;64044;59.904;10.738;2023-02-14T15:14:44;4.20;70.50
74294;DHT22;64044;59.904;10.738;2023-02-14T15:19:47;4.20;70.50
74294;DHT22;64044;59.904;10.738;2023-02-14T15:22:37;4.30;70.60
74294;DHT22;64044;59.904;10.738;2023-02-14T15:25:10;4.30;71.00
74294;DHT22;64044;59.904;10.738;2023-02-14T15:27:39;4.30;70.40
74294;DHT22;64044;59.904;10.738;2023-02-14T15:30:23;4.30;70.40
74294;DHT22;64044;59.904;10.738;2023-02-14T15:32:51;4.40;70.80
74294;DHT22;64044;59.904;10.738;2023-02-14T15:35:28;4.40;70.30
74294;DHT22;64044;59.904;10.738;2023-02-14T15:37:57;4.40;70.60
74294;DHT22;64044;59.904;10.738;2023-02-14T15:40:25;4.40;70.30
74294;DHT22;64044;59.904;10.738;2023-02-14T15:42:53;4.50;70.50
74294;DHT22;64044;59.904;10.738;2023-02-14T15:48:17;4.50;70.60
74294;DHT22;64044;59.904;10.738;2023-02-14T15:50:49;4.50;71.10
74294;DHT22;64044;59.904;10.738;2023-02-14T15:55:47;4.60;70.50
74294;DHT22;64044;59.904;10.738;2023-02-14T15:58:22;4.60;70.40
74294;DHT22;64044;59.904;10.738;2023-02-14T16:00:51;4.60;70.70
74294;DHT22;64044;59.904;10.738;2023-02-14T16:03:23;4.60;70.40
74294;DHT22;64044;59.904;10.738;2023-02-14T16:05:50;4.70;70.60
74294;DHT22;64044;59.904;10.738;2023-02-14T16:08:32;4.70;70.40
74294;DHT22;64044;59.904;10.738;2023-02-14T16:11:05;4.70;70.70
74294;DHT22;64044;59.904;10.738;2023-02-14T16:13:37;4.70;70.50
74294;DHT22;64044;59.904;10.738;2023-02-14T16:16:08;4.70;70.50
74294;DHT22;64044;59.904;10.738;2023-02-14T16:18:54;4.70;70.50
74294;DHT22;64044;59.904;10.738;2023-02-14T16:21:29;4.70;70.40
74294;DHT22;64044;59.904;10.738;2023-02-14T16:26:41;4.80;70.50
74294;DHT22;64044;59.904;10.738;2023-02-14T16:29:15;4.80;70.50
74294;DHT22;64044;59.904;10.738;2023-02-14T16:31:45;4.80;70.50
74294;DHT22;64044;59.904;10.738;2023-02-14T16:34:12;4.90;70.30
74294;DHT22;64044;59.904;10.738;2023-02-14T16:36:39;4.90;70.20
74294;DHT22;64044;59.904;10.738;2023-02-14T16:39:05;4.90;70.30
74294;DHT22;64044;59.904;10.738;2023-02-14T16:41:42;4.90;70.20
74294;DHT22;64044;59.904;10.738;2023-02-14T16:44:15;4.90;70.40
74294;DHT22;64044;59.904;10.738;2023-02-14T16:46:42;4.90;70.50
74294;DHT22;64044;59.904;10.738;2023-02-14T16:49:08;5.00;70.50
74294;DHT22;64044;59.904;10.738;2023-02-14T16:51:35;5.00;70.60
74294;DHT22;64044;59.904;10.738;2023-02-14T16:54:06;5.00;70.70
74294;DHT22;64044;59.904;10.738;2023-02-14T16:56:57;5.00;70.80
74294;DHT22;64044;59.904;10.738;2023-02-14T16:59:22;5.10;70.80
74294;DHT22;64044;59.904;10.738;2023-02-14T17:01:48;5.10;70.60
74294;DHT22;64044;59.904;10.738;2023-02-14T17:04:13;5.10;70.50
74294;DHT22;64044;59.904;10.738;2023-02-14T17:06:42;5.10;70.40
74294;DHT22;64044;59.904;10.738;2023-02-14T17:09:18;5.10;70.30
74294;DHT22;64044;59.904;10.738;2023-02-14T17:11:45;5.10;70.30
74294;DHT22;64044;59.904;10.738;2023-02-14T17:14:16;5.20;71.10
74294;DHT22;64044;59.904;10.738;2023-02-14T17:16:43;5.20;69.80
74294;DHT22;64044;59.904;10.738;2023-02-14T17:19:09;5.20;69.80
74294;DHT22;64044;59.904;10.738;2023-02-14T17:21:35;5.20;69.80
74294;DHT22;64044;59.904;10.738;2023-02-14T17:24:01;5.20;69.80
74294;DHT22;64044;59.904;10.738;2023-02-14T17:26:27;5.20;69.70
74294;DHT22;64044;59.904;10.738;2023-02-14T17:28:53;5.20;69.60
74294;DHT22;64044;59.904;10.738;2023-02-14T17:31:19;5.20;69.60
74294;DHT22;64044;59.904;10.738;2023-02-14T17:33:45;5.20;69.60
74294;DHT22;64044;59.904;10.738;2023-02-14T17:36:12;5.20;69.60
74294;DHT22;64044;59.904;10.738;2023-02-14T17:38:38;5.20;69.70
74294;DHT22;64044;59.904;10.738;2023-02-14T17:41:16;5.20;69.70
74294;DHT22;64044;59.904;10.738;2023-02-14T17:43:43;5.20;69.90
74294;DHT22;64044;59.904;10.738;2023-02-14T17:46:09;5.20;69.70
74294;DHT22;64044;59.904;10.738;2023-02-14T17:48:35;5.20;69.70
74294;DHT22;64044;59.904;10.738;2023-02-14T17:51:08;5.20;69.70
74294;DHT22;64044;59.904;10.738;2023-02-14T17:53:34;5.20;69.90
74294;DHT22;64044;59.904;10.738;2023-02-14T17:56:05;5.20;69.70
74294;DHT22;64044;59.904;10.738;2023-02-14T17:58:31;5.20;69.90
74294;DHT22;64044;59.904;10.738;2023-02-14T18:01:04;5.30;69.90
74294;DHT22;64044;59.904;10.738;2023-02-14T18:03:31;5.20;70.10
74294;DHT22;64044;59.904;10.738;2023-02-14T18:05:57;5.30;70.10
74294;DHT22;64044;59.904;10.738;2023-02-14T18:08:26;5.30;70.20
74294;DHT22;64044;59.904;10.738;2023-02-14T18:10:53;5.30;70.30
74294;DHT22;64044;59.904;10.738;2023-02-14T18:13:20;5.30;70.30
74294;DHT22;64044;59.904;10.738;2023-02-14T18:15:46;5.30;70.40
74294;DHT22;64044;59.904;10.738;2023-02-14T18:18:12;5.40;70.40
74294;DHT22;64044;59.904;10.738;2023-02-14T18:20:38;5.40;70.40
74294;DHT22;64044;59.904;10.738;2023-02-14T18:23:03;5.40;70.40
74294;DHT22;64044;59.904;10.738;2023-02-14T18:25:35;5.40;70.30
74294;DHT22;64044;59.904;10.738;2023-02-14T18:28:01;5.40;70.30
74294;DHT22;64044;59.904;10.738;2023-02-14T18:30:27;5.40;70.20
74294;DHT22;64044;59.904;10.738;2023-02-14T18:32:53;5.50;70.20
74294;DHT22;64044;59.904;10.738;2023-02-14T18:35:19;5.50;70.00
74294;DHT22;64044;59.904;10.738;2023-02-14T18:37:44;5.50;70.10
74294;DHT22;64044;59.904;10.738;2023-02-14T18:40:11;5.50;70.00
74294;DHT22;64044;59.904;10.738;2023-02-14T18:42:44;5.50;69.90
74294;DHT22;64044;59.904;10.738;2023-02-14T18:45:10;5.50;69.80